ADDS METAR Data INFO
IDs: Format: Raw Decoded Include TAF

Data at: 0922 UTC 13 Dec 2017

K11R 130915Z AUTO 00000KT 10SM CLR 01/00 A3018 RMK AO2 T00071001
K11R 130855Z AUTO 00000KT 10SM CLR 01/00 A3020 RMK AO2 T00091005
K11R 130835Z AUTO 00000KT 10SM CLR 01/00 A3020 RMK AO2 T00071002
K11R 130815Z AUTO 00000KT 10SM CLR 01/00 A3021 RMK AO2 T00071005
K11R 130755Z AUTO 00000KT 10SM CLR 01/00 A3023 RMK AO2 T00111004
K11R 130735Z AUTO 00000KT 10SM CLR 02/00 A3022 RMK AO2 T00170000
K11R 130715Z AUTO 00000KT 10SM CLR 02/00 A3022 RMK AO2 T00200000
K11R 130655Z AUTO 00000KT 10SM CLR 02/00 A3023 RMK AO2 T00211004
K11R 130635Z AUTO 00000KT 10SM CLR 02/00 A3023 RMK AO2 T00231003
K11R 130615Z AUTO 00000KT 10SM CLR 03/00 A3025 RMK AO2 T00251001
K11R 130555Z AUTO 00000KT 10SM CLR 03/00 A3025 RMK AO2 T00281001 10105 20028 401650028
K11R 130535Z AUTO 00000KT 10SM CLR 03/00 A3025 RMK AO2 T00330000
K11R 130515Z AUTO 00000KT 10SM CLR 04/00 A3026 RMK AO2 T00350000
K11R 130455Z AUTO 00000KT 10SM CLR 04/M01 A3026 RMK AO2 T00421010
K11R 130435Z AUTO 00000KT 10SM CLR 05/M01 A3027 RMK AO2 T00481008
K11R 130415Z AUTO 00000KT 10SM CLR 05/M01 A3027 RMK AO2 T00531008
K11R 130355Z AUTO 00000KT 10SM CLR 07/M01 A3027 RMK AO2 T00671013
K11R 130335Z AUTO 00000KT 10SM CLR 08/M02 A3027 RMK AO2 T00801021
K11R 130315Z AUTO 00000KT 10SM CLR 07/M01 A3027 RMK AO2 T00731015
K11R 130255Z AUTO 00000KT 10SM CLR 08/M01 A3027 RMK AO2 T00751013
K11R 130235Z AUTO 00000KT 10SM CLR 07/M01 A3028 RMK AO2 T00731011
K11R 130215Z AUTO 34005KT 10SM CLR 08/M01 A3028 RMK AO2 T00811014
K11R 130155Z AUTO 33006KT 10SM CLR 09/M01 A3028 RMK AO2 T00861012
K11R 130135Z AUTO 32006KT 10SM CLR 09/M01 A3028 RMK AO2 T00891015
K11R 130055Z AUTO 33005KT 10SM CLR 09/M01 A3028 RMK AO2 T00911014
K11R 130035Z AUTO 33005KT 10SM CLR 10/M02 A3028 RMK AO2 T01001016
K11R 130015Z AUTO 34006KT 10SM CLR 09/M01 A3027 RMK AO2 T00931012
K11R 122355Z AUTO 32004KT 10SM CLR 11/M02 A3028 RMK AO2 T01051016 10165 20105
K11R 122335Z AUTO 34007KT 10SM CLR 11/M02 A3027 RMK AO2 T01121018
K11R 122315Z AUTO 34006KT 10SM CLR 13/M02 A3028 RMK AO2 T01301017
K11R 122255Z AUTO 35009G14KT 10SM CLR 14/M03 A3027 RMK AO2 T01421028
K11R 122235Z AUTO 35010KT 10SM CLR 15/M03 A3028 RMK AO2 T01491026
K11R 122215Z AUTO 35008KT 10SM CLR 15/M02 A3028 RMK AO2 T01541025
K11R 122155Z AUTO 34011G19KT 10SM CLR 16/M02 A3028 RMK AO2 T01571022
K11R 122135Z AUTO 35010KT 10SM CLR 16/M02 A3028 RMK AO2 T01601016
K11R 122115Z AUTO 34010KT 10SM CLR 16/M01 A3028 RMK AO2 T01611011
K11R 122055Z AUTO 35014G19KT 10SM CLR 16/M01 A3028 RMK AO2 T01591012
K11R 122035Z AUTO 34012G19KT 10SM CLR 16/M01 A3028 RMK AO2 T01611008
K11R 122015Z AUTO 32011KT 10SM CLR 16/M01 A3029 RMK AO2 T01631006
K11R 121955Z AUTO 34011G15KT 10SM CLR 17/00 A3030 RMK AO2 T01651002
K11R 121935Z AUTO 35010G15KT 10SM CLR 16/00 A3030 RMK AO2 T01611002
K11R 121915Z AUTO 35010G16KT 10SM CLR 16/00 A3031 RMK AO2 T01611003
K11R 121855Z AUTO 36010G17KT 10SM CLR 16/M01 A3032 RMK AO2 T01601009
K11R 121835Z AUTO 01010G16KT 10SM CLR 16/00 A3033 RMK AO2 T01601002
K11R 121815Z AUTO 35010G17KT 10SM CLR 15/00 A3035 RMK AO2 T01531004
K11R 121755Z AUTO 35015G21KT 10SM CLR 15/M01 A3036 RMK AO2 T01481012 10153 20082
K11R 121735Z AUTO 35015KT 10SM CLR 15/00 A3037 RMK AO2 T01481003
K11R 121715Z AUTO 36013G20KT 10SM CLR 14/M01 A3038 RMK AO2 T01441006
K11R 121655Z AUTO 01010G21KT 350V050 10SM CLR 14/00 A3038 RMK AO2 T01441002
K11R 121635Z AUTO 01010G15KT 10SM CLR 14/00 A3038 RMK AO2 T01360001
K11R 121615Z AUTO 36012G18KT 10SM CLR 13/01 A3039 RMK AO2 T01320005
K11R 121555Z AUTO 36013G18KT 10SM CLR 13/00 A3039 RMK AO2 T01260002
K11R 121535Z AUTO 36011KT 10SM CLR 12/00 A3038 RMK AO2 T01220001
K11R 121515Z AUTO 36012G15KT 10SM CLR 12/00 A3037 RMK AO2 T01150002
K11R 121455Z AUTO 35013KT 10SM CLR 11/00 A3037 RMK AO2 T01101001
K11R 121435Z AUTO 35011KT 10SM CLR 10/00 A3036 RMK AO2 T01021001
K11R 121415Z AUTO 35014KT 10SM CLR 10/00 A3035 RMK AO2 T00971005
K11R 121355Z AUTO 35012KT 10SM CLR 09/00 A3034 RMK AO2 T00901004
K11R 121335Z AUTO 34010KT 10SM CLR 08/00 A3034 RMK AO2 T00831005
K11R 121315Z AUTO 34010KT 10SM CLR 08/M01 A3033 RMK AO2 T00841006
K11R 121255Z AUTO 36011KT 10SM CLR 09/00 A3032 RMK AO2 T00851001
K11R 121235Z AUTO 36008KT 10SM CLR 09/00 A3031 RMK AO2 T00850000
K11R 121215Z AUTO 36008KT 10SM CLR 09/00 A3030 RMK AO2 T00850002
K11R 121155Z AUTO 36007KT 10SM CLR 08/01 A3029 RMK AO2 T00830005 10132 20081
K11R 121135Z AUTO 35007KT 10SM CLR 08/01 A3028 RMK AO2 T00820007
K11R 121115Z AUTO 36006KT 10SM CLR 09/01 A3028 RMK AO2 T00920007
K11R 121055Z AUTO 36006KT 10SM CLR 09/01 A3027 RMK AO2 T00940011
K11R 121035Z AUTO 34005KT 10SM CLR 10/01 A3026 RMK AO2 T01000011
K11R 121015Z AUTO 34009KT 10SM CLR 11/02 A3025 RMK AO2 T01050016
K11R 120955Z AUTO 35009KT 10SM CLR 11/02 A3025 RMK AO2 T01070018
K11R 120935Z AUTO 34010KT 10SM CLR 11/02 A3023 RMK AO2 T01090021
K11R 120915Z AUTO 33011KT 10SM CLR 11/03 A3023 RMK AO2 T01130028
K11R 120855Z AUTO 32008KT 10SM CLR 11/03 A3022 RMK AO2 T01140034
K11R 120835Z AUTO 31007KT 10SM CLR 12/03 A3022 RMK AO2 T01180031
K11R 120815Z AUTO 31007KT 10SM CLR 11/03 A3022 RMK AO2 T01080031
K11R 120755Z AUTO 29005KT 10SM CLR 12/03 A3020 RMK AO2 T01200026
K11R 120735Z AUTO 28003KT 10SM CLR 12/03 A3020 RMK AO2 T01160025
K11R 120715Z AUTO 28004KT 10SM CLR 11/03 A3020 RMK AO2 T01060025
K11R 120655Z AUTO 28003KT 10SM CLR 12/02 A3020 RMK AO2 T01200022
K11R 120635Z AUTO 25003KT 10SM CLR 13/02 A3019 RMK AO2 T01250021
K11R 120615Z AUTO 00000KT 10SM CLR 13/02 A3020 RMK AO2 T01250021
K11R 120555Z AUTO 27003KT 10SM CLR 13/02 A3020 RMK AO2 T01320017 10192 20120 402480045
K11R 120535Z AUTO 25003KT 10SM CLR 13/02 A3020 RMK AO2 T01310019
K11R 120515Z AUTO 25004KT 10SM CLR 12/02 A3021 RMK AO2 T01220020
K11R 120455Z AUTO 25003KT 10SM CLR 13/01 A3020 RMK AO2 T01330011
K11R 120435Z AUTO 00000KT 10SM CLR 14/01 A3020 RMK AO2 T01370008
K11R 120415Z AUTO 27003KT 10SM CLR 14/01 A3020 RMK AO2 T01370005
K11R 120355Z AUTO 00000KT 10SM CLR 14/01 A3020 RMK AO2 T01350009
K11R 120335Z AUTO 00000KT 10SM CLR 14/01 A3020 RMK AO2 T01380010
K11R 120315Z AUTO 00000KT 10SM CLR 15/00 A3020 RMK AO2 T01460000
K11R 120255Z AUTO 00000KT 10SM CLR 15/00 A3020 RMK AO2 T01491003
K11R 120235Z AUTO 00000KT 10SM CLR 15/00 A3020 RMK AO2 T01470000
K11R 120215Z AUTO 24003KT 10SM CLR 16/00 A3020 RMK AO2 T01601003
K11R 120155Z AUTO 00000KT 10SM CLR 16/00 A3020 RMK AO2 T01601002
K11R 120135Z AUTO 00000KT 10SM CLR 15/00 A3020 RMK AO2 T01510000
K11R 120115Z AUTO 00000KT 10SM CLR 16/00 A3020 RMK AO2 T01631002
K11R 120055Z AUTO 23003KT 10SM CLR 17/00 A3020 RMK AO2 T01691005
K11R 120035Z AUTO 24003KT 10SM CLR 18/00 A3019 RMK AO2 T01761005
K11R 120015Z AUTO 22003KT 10SM CLR 19/00 A3019 RMK AO2 T01851005
K11R 112355Z AUTO 22004KT 10SM CLR 19/M01 A3018 RMK AO2 T01941009 10248 20194
K11R 112335Z AUTO 00000KT 10SM CLR 20/M01 A3017 RMK AO2 T02041012
K11R 112315Z AUTO 23003KT 10SM CLR 22/M02 A3017 RMK AO2 T02171019
K11R 112255Z AUTO 22004KT 10SM CLR 23/M02 A3017 RMK AO2 T02251023
K11R 112235Z AUTO 23003KT 10SM CLR 24/M04 A3018 RMK AO2 T02351039
K11R 112215Z AUTO 23005KT 10SM CLR 24/M05 A3018 RMK AO2 T02411051
K11R 112155Z AUTO 23007KT 10SM CLR 24/M03 A3018 RMK AO2 T02441035
K11R 112135Z AUTO 23005KT 10SM CLR 25/M03 A3019 RMK AO2 T02481029